Time;durP1;ratioP1;P1;durP2;ratioP2;P2;SDS_P1;SDS_P2;PMS_P1;PMS_P2;Temp;Humidity;BMP_temperature;BMP_pressure;BME280_temperature;BME280_humidity;BME280_pressure;Samples;Min_cycle;Max_cycle;Signal;HPM_P1;HPM_P2
2022/06/23 00:01:14;;;;;;;;;;;;;;;;;;5034939;28;19917;-75
2022/06/23 00:03:40;;;;;;;;;;;;;;;;;;5035159;28;19953;-78
2022/06/23 00:06:05;;;;;;;;;;;;;;;;;;5034842;28;19909;-75
2022/06/23 00:08:31;;;;;;;;;;;;;;;;;;5034770;28;20374;-76
2022/06/23 00:10:57;;;;;;;;;;;;;;;;;;5034680;28;19964;-75
2022/06/23 00:13:23;;;;;;;;;;;;;;;;;;5034944;28;19909;-76
2022/06/23 00:15:49;;;;;;;;;;;;;;;;;;5034662;28;20047;-75
2022/06/23 00:18:16;;;;;;;;;;;;;;;;;;5034882;28;19913;-74
2022/06/23 00:20:42;;;;;;;;;;;;;;;;;;5033274;28;19940;-78
2022/06/23 00:23:07;;;;;;;;;;;;;;;;;;5033193;28;20316;-78
2022/06/23 00:25:33;;;;;;;;;;;;;;;;;;5034728;28;19947;-76
2022/06/23 00:27:59;;;;;;;;;;;;;;;;;;5034380;28;19909;-75
2022/06/23 00:30:25;;;;;;;;;;;;;;;;;;5033032;28;19909;-77
2022/06/23 00:32:51;;;;;;;;;;;;;;;;;;5034329;28;19909;-77
2022/06/23 00:35:17;;;;;;;;;;;;;;;;;;5033036;28;19909;-76
2022/06/23 00:37:43;;;;;;;;;;;;;;;;;;5034246;28;19909;-77
2022/06/23 00:40:09;;;;;;;;;;;;;;;;;;5034215;28;19916;-75
2022/06/23 00:42:35;;;;;;;;;;;;;;;;;;5033996;28;20296;-77
2022/06/23 00:45:01;;;;;;;;;;;;;;;;;;5034122;28;19910;-77
2022/06/23 00:47:27;;;;;;;;;;;;;;;;;;5034402;28;19916;-76
2022/06/23 00:49:53;;;;;;;;;;;;;;;;;;5034066;28;19909;-76
2022/06/23 00:52:19;;;;;;;;;;;;;;;;;;5033950;28;20011;-78
2022/06/23 00:54:45;;;;;;;;;;;;;;;;;;5033985;28;20395;-76
2022/06/23 00:57:13;;;;;;;;;;;;;;;;;;5032659;28;19913;-75
2022/06/23 00:59:39;;;;;;;;;;;;;;;;;;5034478;28;20031;-76
2022/06/23 01:02:04;;;;;;;;;;;;;;;;;;5033865;28;20396;-77
2022/06/23 01:04:30;;;;;;;;;;;;;;;;;;5034162;28;19916;-76
2022/06/23 01:06:56;;;;;;;;;;;;;;;;;;5032559;28;19932;-75
2022/06/23 01:09:22;;;;;;;;;;;;;;;;;;5032583;28;19959;-75
2022/06/23 01:11:48;;;;;;;;;;;;;;;;;;5034007;28;19913;-77
2022/06/23 01:14:14;;;;;;;;;;;;;;;;;;5033772;28;20393;-74
2022/06/23 01:16:40;;;;;;;;;;;;;;;;;;5032437;28;20375;-75
2022/06/23 01:19:06;;;;;;;;;;;;;;;;;;5033683;28;19909;-76
2022/06/23 01:21:32;;;;;;;;;;;;;;;;;;5034236;28;20251;-76
2022/06/23 01:23:57;;;;;;;;;;;;;;;;;;5033945;28;19999;-77
2022/06/23 01:26:23;;;;;;;;;;;;;;;;;;5033591;28;20273;-76
2022/06/23 01:28:49;;;;;;;;;;;;;;;;;;5033947;28;19909;-74
2022/06/23 01:31:15;;;;;;;;;;;;;;;;;;5033516;28;19913;-75
2022/06/23 01:33:41;;;;;;;;;;;;;;;;;;5033543;28;19909;-76
2022/06/23 01:36:07;;;;;;;;;;;;;;;;;;5034058;28;19913;-76
2022/06/23 01:38:33;;;;;;;;;;;;;;;;;;5033455;28;19955;-77
2022/06/23 01:40:59;;;;;;;;;;;;;;;;;;5033290;28;19949;-76
2022/06/23 01:43:25;;;;;;;;;;;;;;;;;;5034063;28;20326;-75
2022/06/23 01:45:51;;;;;;;;;;;;;;;;;;5033420;28;20369;-74
2022/06/23 01:48:16;;;;;;;;;;;;;;;;;;5034168;28;20392;-75
2022/06/23 01:50:42;;;;;;;;;;;;;;;;;;5037360;28;19917;-74
2022/06/23 01:53:08;;;;;;;;;;;;;;;;;;5037326;28;19947;-77
2022/06/23 01:55:34;;;;;;;;;;;;;;;;;;5037603;28;19913;-77
2022/06/23 01:58:01;;;;;;;;;;;;;;;;;;5037278;28;20282;-76
2022/06/23 02:00:27;;;;;;;;;;;;;;;;;;5035904;28;19909;-74
2022/06/23 02:02:53;;;;;;;;;;;;;;;;;;5037153;28;19910;-75
2022/06/23 02:05:19;;;;;;;;;;;;;;;;;;5035769;28;19960;-76
2022/06/23 02:07:45;;;;;;;;;;;;;;;;;;5037345;28;19913;-75
2022/06/23 02:10:11;;;;;;;;;;;;;;;;;;5035717;28;20321;-76
2022/06/23 02:12:37;;;;;;;;;;;;;;;;;;5037181;28;19919;-75
2022/06/23 02:15:03;;;;;;;;;;;;;;;;;;5036912;28;19909;-75
2022/06/23 02:17:29;;;;;;;;;;;;;;;;;;5036878;28;19963;-75
2022/06/23 02:19:55;;;;;;;;;;;;;;;;;;5037153;28;19920;-76
2022/06/23 02:22:21;;;;;;;;;;;;;;;;;;5036817;28;19909;-76
2022/06/23 02:24:47;;;;;;;;;;;;;;;;;;5036790;28;19959;-74
2022/06/23 02:27:12;;;;;;;;;;;;;;;;;;5037009;28;19913;-74
2022/06/23 02:29:38;;;;;;;;;;;;;;;;;;5036661;28;19909;-75
2022/06/23 02:32:04;;;;;;;;;;;;;;;;;;5037146;28;19917;-74
2022/06/23 02:34:30;;;;;;;;;;;;;;;;;;5036848;28;19909;-76
2022/06/23 02:36:56;;;;;;;;;;;;;;;;;;5037097;28;20074;-76
2022/06/23 02:39:22;;;;;;;;;;;;;;;;;;5036453;28;19951;-74
2022/06/23 02:41:48;;;;;;;;;;;;;;;;;;5036330;28;19921;-77
2022/06/23 02:44:14;;;;;;;;;;;;;;;;;;5036462;28;19909;-75
2022/06/23 02:46:40;;;;;;;;;;;;;;;;;;5035072;28;19960;-74
2022/06/23 02:49:05;;;;;;;;;;;;;;;;;;5036291;28;20012;-75
2022/06/23 02:51:31;;;;;;;;;;;;;;;;;;5036455;28;19917;-74
2022/06/23 02:53:57;;;;;;;;;;;;;;;;;;5036289;28;19960;-76
2022/06/23 02:56:23;;;;;;;;;;;;;;;;;;5036270;28;19917;-75
2022/06/23 02:58:49;;;;;;;;;;;;;;;;;;5035818;28;20365;-76
2022/06/23 03:01:15;;;;;;;;;;;;;;;;;;5034891;28;20003;-75
2022/06/23 03:03:41;;;;;;;;;;;;;;;;;;5036335;28;19916;-78
2022/06/23 03:06:07;;;;;;;;;;;;;;;;;;5035975;28;20399;-76
2022/06/23 03:08:33;;;;;;;;;;;;;;;;;;5035966;28;20035;-76
2022/06/23 03:10:59;;;;;;;;;;;;;;;;;;5036090;28;19913;-76
2022/06/23 03:13:25;;;;;;;;;;;;;;;;;;5035846;28;19920;-76
2022/06/23 03:15:51;;;;;;;;;;;;;;;;;;5036211;28;19909;-76
2022/06/23 03:18:17;;;;;;;;;;;;;;;;;;5035742;28;19915;-74
2022/06/23 03:20:44;;;;;;;;;;;;;;;;;;5036279;28;19909;-75
2022/06/23 03:23:10;;;;;;;;;;;;;;;;;;5035661;28;19916;-76
2022/06/23 03:25:35;;;;;;;;;;;;;;;;;;5035911;28;19910;-76
2022/06/23 03:28:01;;;;;;;;;;;;;;;;;;5035848;28;20376;-77
2022/06/23 03:30:27;;;;;;;;;;;;;;;;;;5035475;28;19963;-75
2022/06/23 03:32:53;;;;;;;;;;;;;;;;;;5035747;28;19979;-76
2022/06/23 03:35:19;;;;;;;;;;;;;;;;;;5035448;28;19909;-75
2022/06/23 03:37:45;;;;;;;;;;;;;;;;;;5035335;28;19913;-78
2022/06/23 03:42:56;;;;;;;;;;;;;;;;;;5035182;28;20367;-78
2022/06/23 03:45:21;;;;;;;;;;;;;;;;;;5035784;28;19909;-76
2022/06/23 03:47:47;;;;;;;;;;;;;;;;;;5035191;28;19909;-74
2022/06/23 03:50:13;;;;;;;;;;;;;;;;;;5035125;28;19910;-74
2022/06/23 03:52:39;;;;;;;;;;;;;;;;;;5035300;28;19924;-76
2022/06/23 03:55:05;;;;;;;;;;;;;;;;;;5035044;28;19913;-78
2022/06/23 03:57:31;;;;;;;;;;;;;;;;;;5035599;28;19945;-76
2022/06/23 03:59:57;;;;;;;;;;;;;;;;;;5035017;28;19916;-75
2022/06/23 04:02:23;;;;;;;;;;;;;;;;;;5035471;28;19916;-74
2022/06/23 04:04:49;;;;;;;;;;;;;;;;;;5033633;28;19913;-77
2022/06/23 04:07:15;;;;;;;;;;;;;;;;;;5034837;28;20001;-76
2022/06/23 04:09:41;;;;;;;;;;;;;;;;;;5035070;28;19940;-78
2022/06/23 04:12:07;;;;;;;;;;;;;;;;;;5033953;28;20365;-76
2022/06/23 04:14:33;;;;;;;;;;;;;;;;;;5034738;28;19920;-76
2022/06/23 04:16:58;;;;;;;;;;;;;;;;;;5034626;28;19916;-77
2022/06/23 04:19:25;;;;;;;;;;;;;;;;;;5034621;28;20428;-75
2022/06/23 04:21:57;;;;;;;;;;;;;;;;;;5034598;28;19948;-76
2022/06/23 04:24:23;;;;;;;;;;;;;;;;;;5035173;28;19935;-75
2022/06/23 04:26:48;;;;;;;;;;;;;;;;;;5034478;28;20478;-78
2022/06/23 04:29:14;;;;;;;;;;;;;;;;;;5034730;28;19919;-75
2022/06/23 04:31:40;;;;;;;;;;;;;;;;;;5034308;28;20004;-77
2022/06/23 04:34:06;;;;;;;;;;;;;;;;;;5034875;28;20246;-76
2022/06/23 04:36:32;;;;;;;;;;;;;;;;;;5033079;28;19917;-76
2022/06/23 04:38:58;;;;;;;;;;;;;;;;;;5034516;28;19984;-75
2022/06/23 04:41:24;;;;;;;;;;;;;;;;;;5032770;28;19956;-76
2022/06/23 04:43:50;;;;;;;;;;;;;;;;;;5032964;28;20295;-77
2022/06/23 04:46:16;;;;;;;;;;;;;;;;;;5034170;28;19916;-76
2022/06/23 04:48:41;;;;;;;;;;;;;;;;;;5034698;28;19916;-76
2022/06/23 04:51:07;;;;;;;;;;;;;;;;;;5034297;28;19924;-75
2022/06/23 04:53:34;;;;;;;;;;;;;;;;;;5034022;28;19952;-77
2022/06/23 04:56:00;;;;;;;;;;;;;;;;;;5032502;28;19909;-76
2022/06/23 04:58:26;;;;;;;;;;;;;;;;;;5034265;28;20047;-75
2022/06/23 05:00:52;;;;;;;;;;;;;;;;;;5033902;28;19909;-75
2022/06/23 05:03:18;;;;;;;;;;;;;;;;;;5033895;28;20362;-76
2022/06/23 05:05:44;;;;;;;;;;;;;;;;;;5033863;28;19909;-75
2022/06/23 05:08:10;;;;;;;;;;;;;;;;;;5033840;28;19909;-75
2022/06/23 05:10:36;;;;;;;;;;;;;;;;;;5033743;28;19909;-76
2022/06/23 05:13:02;;;;;;;;;;;;;;;;;;5034344;28;20003;-75
2022/06/23 05:15:28;;;;;;;;;;;;;;;;;;5033997;28;19952;-76
2022/06/23 05:17:53;;;;;;;;;;;;;;;;;;5033687;28;19928;-77
2022/06/23 05:20:19;;;;;;;;;;;;;;;;;;5033956;28;19909;-75
2022/06/23 05:22:45;;;;;;;;;;;;;;;;;;5032240;28;20419;-74
2022/06/23 05:25:11;;;;;;;;;;;;;;;;;;5033644;28;19909;-77
2022/06/23 05:27:37;;;;;;;;;;;;;;;;;;5033717;28;19991;-76
2022/06/23 05:30:03;;;;;;;;;;;;;;;;;;5033725;28;20003;-76
2022/06/23 05:32:29;;;;;;;;;;;;;;;;;;5033864;28;19913;-75
2022/06/23 05:34:55;;;;;;;;;;;;;;;;;;5033975;28;19914;-75
2022/06/23 05:37:21;;;;;;;;;;;;;;;;;;5034308;28;19909;-75
2022/06/23 05:39:47;;;;;;;;;;;;;;;;;;5032478;28;19913;-75
2022/06/23 05:42:13;;;;;;;;;;;;;;;;;;5033667;28;19924;-75
2022/06/23 05:44:39;;;;;;;;;;;;;;;;;;5032201;28;19909;-76
2022/06/23 05:47:05;;;;;;;;;;;;;;;;;;5033672;28;19913;-75
2022/06/23 05:49:31;;;;;;;;;;;;;;;;;;5032123;28;19979;-76
2022/06/23 05:51:57;;;;;;;;;;;;;;;;;;5033280;28;19948;-77
2022/06/23 05:54:23;;;;;;;;;;;;;;;;;;5033651;28;19916;-75
2022/06/23 05:56:49;;;;;;;;;;;;;;;;;;5033362;28;19996;-75
2022/06/23 05:59:15;;;;;;;;;;;;;;;;;;5033942;28;20298;-77
2022/06/23 06:01:41;;;;;;;;;;;;;;;;;;5033625;28;19916;-75
2022/06/23 06:04:07;;;;;;;;;;;;;;;;;;5033333;28;19944;-76
2022/06/23 06:06:33;;;;;;;;;;;;;;;;;;5033308;28;19910;-75
2022/06/23 06:11:43;;;;;;;;;;;;;;;;;;5032973;28;19920;-75
2022/06/23 06:14:09;;;;;;;;;;;;;;;;;;5033459;28;20281;-75
2022/06/23 06:16:35;;;;;;;;;;;;;;;;;;5033231;28;19920;-76
2022/06/23 06:19:01;;;;;;;;;;;;;;;;;;5033753;28;19909;-74
2022/06/23 06:21:27;;;;;;;;;;;;;;;;;;5033440;28;19991;-75
2022/06/23 06:23:53;;;;;;;;;;;;;;;;;;5031849;28;20373;-76
2022/06/23 06:26:19;;;;;;;;;;;;;;;;;;5033077;28;19917;-76
2022/06/23 06:28:44;;;;;;;;;;;;;;;;;;5033089;28;19913;-74
2022/06/23 06:31:10;;;;;;;;;;;;;;;;;;5032993;28;19913;-75
2022/06/23 06:33:36;;;;;;;;;;;;;;;;;;5033017;28;19909;-76
2022/06/23 06:36:02;;;;;;;;;;;;;;;;;;5036516;28;19999;-74
2022/06/23 06:38:28;;;;;;;;;;;;;;;;;;5035223;28;19909;-76
2022/06/23 06:40:56;;;;;;;;;;;;;;;;;;5036331;28;19909;-73
2022/06/23 06:43:22;;;;;;;;;;;;;;;;;;5036792;28;19913;-75
2022/06/23 06:45:48;;;;;;;;;;;;;;;;;;5036734;28;20293;-75
2022/06/23 06:48:13;;;;;;;;;;;;;;;;;;5036636;28;19917;-76
2022/06/23 06:50:39;;;;;;;;;;;;;;;;;;5034999;28;19944;-76
2022/06/23 06:53:05;;;;;;;;;;;;;;;;;;5036279;28;19913;-76
2022/06/23 06:55:31;;;;;;;;;;;;;;;;;;5036514;28;19944;-76
2022/06/23 06:57:57;;;;;;;;;;;;;;;;;;5036156;28;20373;-76
2022/06/23 07:00:23;;;;;;;;;;;;;;;;;;5035577;28;19909;-75
2022/06/23 07:02:49;;;;;;;;;;;;;;;;;;5035474;28;19913;-75
2022/06/23 07:05:15;;;;;;;;;;;;;;;;;;5036086;28;19940;-76
2022/06/23 07:07:41;;;;;;;;;;;;;;;;;;5032825;28;20015;-79
2022/06/23 07:10:06;;;;;;;;;;;;;;;;;;5035731;28;19909;-75
2022/06/23 07:12:32;;;;;;;;;;;;;;;;;;5035239;28;19917;-81
2022/06/23 07:14:58;;;;;;;;;;;;;;;;;;5034245;28;19909;-78
2022/06/23 07:17:24;;;;;;;;;;;;;;;;;;5034219;28;19941;-81
2022/06/23 07:19:50;;;;;;;;;;;;;;;;;;5035463;28;20460;-79
2022/06/23 07:22:16;;;;;;;;;;;;;;;;;;5035436;28;19956;-80
2022/06/23 07:24:42;;;;;;;;;;;;;;;;;;5035259;28;19917;-80
2022/06/23 07:27:08;;;;;;;;;;;;;;;;;;5032913;28;19916;-76
2022/06/23 07:29:34;;;;;;;;;;;;;;;;;;5035973;28;19962;-75
2022/06/23 07:32:00;;;;;;;;;;;;;;;;;;5035004;28;19975;-75
2022/06/23 07:34:26;;;;;;;;;;;;;;;;;;5034101;28;19913;-76
2022/06/23 07:36:52;;;;;;;;;;;;;;;;;;5034444;28;19913;-74
2022/06/23 07:39:18;;;;;;;;;;;;;;;;;;5035012;28;19921;-77
2022/06/23 07:41:44;;;;;;;;;;;;;;;;;;5035047;28;19972;-76
2022/06/23 07:44:10;;;;;;;;;;;;;;;;;;5034554;28;20284;-75
2022/06/23 07:46:36;;;;;;;;;;;;;;;;;;5033401;28;20003;-80
2022/06/23 07:49:02;;;;;;;;;;;;;;;;;;5034643;28;19952;-81
2022/06/23 07:51:28;;;;;;;;;;;;;;;;;;5035449;28;19917;-74
2022/06/23 07:53:54;;;;;;;;;;;;;;;;;;5034376;28;19928;-78
2022/06/23 07:56:19;;;;;;;;;;;;;;;;;;5034254;28;19924;-77
2022/06/23 07:58:46;;;;;;;;;;;;;;;;;;5034557;28;20390;-76
2022/06/23 08:01:12;;;;;;;;;;;;;;;;;;5034905;28;19913;-78
2022/06/23 08:03:38;;;;;;;;;;;;;;;;;;5036465;28;19956;-75
2022/06/23 08:06:04;;;;;;;;;;;;;;;;;;5034882;28;19909;-78
2022/06/23 08:08:29;;;;;;;;;;;;;;;;;;5034795;28;19916;-78
2022/06/23 08:13:40;;;;;;;;;;;;;;;;;;5035095;28;19959;-80
2022/06/23 08:18:50;;;;;;;;;;;;;;;;;;5034546;28;19959;-75
2022/06/23 08:21:16;;;;;;;;;;;;;;;;;;5034234;28;19914;-77
2022/06/23 08:23:42;;;;;;;;;;;;;;;;;;5035091;28;20342;-75
2022/06/23 08:26:10;;;;;;;;;;;;;;;;;;5034810;28;19916;-79
2022/06/23 08:28:36;;;;;;;;;;;;;;;;;;5033938;28;19916;-74
2022/06/23 08:31:02;;;;;;;;;;;;;;;;;;5033509;28;19917;-73
2022/06/23 08:33:28;;;;;;;;;;;;;;;;;;5032940;28;20456;-80
2022/06/23 08:35:53;;;;;;;;;;;;;;;;;;5034070;28;20357;-80
2022/06/23 08:38:20;;;;;;;;;;;;;;;;;;5034476;28;19909;-80
2022/06/23 08:40:45;;;;;;;;;;;;;;;;;;5034402;28;19913;-81
2022/06/23 08:43:11;;;;;;;;;;;;;;;;;;5033660;28;19917;-79
2022/06/23 08:45:37;;;;;;;;;;;;;;;;;;5034066;28;19975;-81
2022/06/23 08:48:03;;;;;;;;;;;;;;;;;;5033457;28;19928;-75
2022/06/23 08:50:29;;;;;;;;;;;;;;;;;;5033693;28;19909;-75
2022/06/23 08:52:55;;;;;;;;;;;;;;;;;;5034128;28;19975;-74
2022/06/23 08:55:21;;;;;;;;;;;;;;;;;;5034000;28;20000;-74
2022/06/23 08:57:47;;;;;;;;;;;;;;;;;;5034229;28;20369;-73
2022/06/23 09:00:13;;;;;;;;;;;;;;;;;;5032884;28;19924;-74
2022/06/23 09:02:38;;;;;;;;;;;;;;;;;;5034360;28;20365;-74
2022/06/23 09:05:05;;;;;;;;;;;;;;;;;;5034448;28;19916;-74
2022/06/23 09:07:31;;;;;;;;;;;;;;;;;;5032105;28;19913;-74
2022/06/23 09:09:57;;;;;;;;;;;;;;;;;;5033272;28;19920;-77
2022/06/23 09:12:22;;;;;;;;;;;;;;;;;;5033501;28;20014;-79
2022/06/23 09:14:48;;;;;;;;;;;;;;;;;;5032298;28;20384;-75
2022/06/23 09:17:14;;;;;;;;;;;;;;;;;;5033319;28;19944;-78
2022/06/23 09:19:40;;;;;;;;;;;;;;;;;;5032389;28;19967;-77
2022/06/23 09:22:06;;;;;;;;;;;;;;;;;;5033758;28;19909;-77
2022/06/23 09:24:33;;;;;;;;;;;;;;;;;;5034062;28;20004;-80
2022/06/23 09:26:59;;;;;;;;;;;;;;;;;;5031988;28;19913;-79
2022/06/23 09:29:25;;;;;;;;;;;;;;;;;;5033825;28;19913;-75
2022/06/23 09:31:51;;;;;;;;;;;;;;;;;;5032862;28;19924;-81
2022/06/23 09:34:17;;;;;;;;;;;;;;;;;;5034242;28;20329;-82
2022/06/23 09:36:43;;;;;;;;;;;;;;;;;;5033874;28;19917;-80
2022/06/23 09:39:08;;;;;;;;;;;;;;;;;;5032168;28;19931;-75
2022/06/23 09:41:34;;;;;;;;;;;;;;;;;;5033214;28;19917;-78
2022/06/23 09:44:00;;;;;;;;;;;;;;;;;;5033458;28;19909;-84
2022/06/23 09:46:26;;;;;;;;;;;;;;;;;;5033443;28;19944;-81
2022/06/23 09:48:52;;;;;;;;;;;;;;;;;;5033773;28;19991;-80
2022/06/23 09:51:18;;;;;;;;;;;;;;;;;;5032896;28;20395;-80
2022/06/23 09:53:44;;;;;;;;;;;;;;;;;;5032951;28;20008;-80
2022/06/23 09:56:10;;;;;;;;;;;;;;;;;;5032826;28;19955;-78
2022/06/23 09:58:36;;;;;;;;;;;;;;;;;;5033366;28;19956;-79
2022/06/23 10:01:02;;;;;;;;;;;;;;;;;;5032821;28;19919;-78
2022/06/23 10:03:28;;;;;;;;;;;;;;;;;;5032948;28;19917;-80
2022/06/23 10:05:54;;;;;;;;;;;;;;;;;;5032178;28;19920;-79
2022/06/23 10:08:19;;;;;;;;;;;;;;;;;;5025276;28;19929;-78
2022/06/23 10:10:45;;;;;;;;;;;;;;;;;;5017416;28;20007;-80
2022/06/23 10:13:11;;;;;;;;;;;;;;;;;;5036795;28;19909;-78
2022/06/23 10:15:37;;;;;;;;;;;;;;;;;;5036293;28;19967;-74
2022/06/23 10:18:03;;;;;;;;;;;;;;;;;;5036971;28;19909;-75
2022/06/23 10:20:29;;;;;;;;;;;;;;;;;;5035701;28;19909;-75
2022/06/23 10:22:55;;;;;;;;;;;;;;;;;;5035388;28;19956;-75
2022/06/23 10:25:21;;;;;;;;;;;;;;;;;;5036236;28;19913;-75
2022/06/23 10:27:47;;;;;;;;;;;;;;;;;;5036389;28;19909;-75
2022/06/23 10:30:12;;;;;;;;;;;;;;;;;;5036328;28;19916;-75
2022/06/23 10:32:38;;;;;;;;;;;;;;;;;;5036193;28;20415;-75
2022/06/23 10:35:04;;;;;;;;;;;;;;;;;;5035254;28;19968;-74
2022/06/23 10:37:30;;;;;;;;;;;;;;;;;;5036699;28;19909;-75
2022/06/23 10:39:56;;;;;;;;;;;;;;;;;;5036474;28;19915;-75
2022/06/23 10:42:22;;;;;;;;;;;;;;;;;;5036296;28;19970;-75
2022/06/23 10:44:48;;;;;;;;;;;;;;;;;;5036469;28;19909;-75
2022/06/23 10:47:14;;;;;;;;;;;;;;;;;;5036672;28;19913;-74
2022/06/23 10:49:40;;;;;;;;;;;;;;;;;;5036592;28;20416;-75
2022/06/23 10:52:06;;;;;;;;;;;;;;;;;;5036232;28;20400;-75
2022/06/23 10:54:32;;;;;;;;;;;;;;;;;;5036786;28;19910;-75
2022/06/23 10:56:57;;;;;;;;;;;;;;;;;;5036223;28;19909;-75
2022/06/23 10:59:23;;;;;;;;;;;;;;;;;;5036466;28;19909;-75
2022/06/23 11:01:49;;;;;;;;;;;;;;;;;;5034868;28;19913;-75
2022/06/23 11:04:15;;;;;;;;;;;;;;;;;;5036113;28;19959;-75
2022/06/23 11:06:41;;;;;;;;;;;;;;;;;;5036047;28;20403;-75
2022/06/23 11:09:07;;;;;;;;;;;;;;;;;;5036025;28;19909;-75
2022/06/23 11:11:33;;;;;;;;;;;;;;;;;;5036440;28;20254;-75
2022/06/23 11:13:59;;;;;;;;;;;;;;;;;;5036163;28;20015;-75
2022/06/23 11:16:25;;;;;;;;;;;;;;;;;;5035856;28;20289;-76
2022/06/23 11:18:51;;;;;;;;;;;;;;;;;;5035830;28;19909;-75
2022/06/23 11:21:16;;;;;;;;;;;;;;;;;;5035478;28;19909;-75
2022/06/23 11:23:42;;;;;;;;;;;;;;;;;;5035759;28;20374;-75
2022/06/23 11:26:08;;;;;;;;;;;;;;;;;;5035707;28;20369;-75
2022/06/23 11:28:34;;;;;;;;;;;;;;;;;;5036184;28;19916;-75
2022/06/23 11:31:00;;;;;;;;;;;;;;;;;;5035775;28;20006;-74
2022/06/23 11:33:26;;;;;;;;;;;;;;;;;;5034263;28;19909;-74
2022/06/23 11:35:52;;;;;;;;;;;;;;;;;;5034213;28;19910;-74
2022/06/23 11:38:18;;;;;;;;;;;;;;;;;;5035457;28;19909;-75
2022/06/23 11:40:45;;;;;;;;;;;;;;;;;;5035707;28;20003;-75
2022/06/23 11:43:10;;;;;;;;;;;;;;;;;;5035644;28;20000;-75
2022/06/23 11:45:36;;;;;;;;;;;;;;;;;;5035856;28;19941;-75
2022/06/23 11:48:02;;;;;;;;;;;;;;;;;;5034952;28;20289;-79
2022/06/23 11:50:28;;;;;;;;;;;;;;;;;;5035801;28;19948;-74
2022/06/23 11:52:54;;;;;;;;;;;;;;;;;;5035131;28;20388;-74
2022/06/23 11:55:20;;;;;;;;;;;;;;;;;;5035330;28;19909;-74
2022/06/23 11:57:46;;;;;;;;;;;;;;;;;;5035113;28;20440;-74
2022/06/23 12:00:12;;;;;;;;;;;;;;;;;;5035054;28;19920;-75
2022/06/23 12:02:38;;;;;;;;;;;;;;;;;;5035271;28;19909;-74
2022/06/23 12:05:04;;;;;;;;;;;;;;;;;;5034947;28;19910;-74
2022/06/23 12:07:30;;;;;;;;;;;;;;;;;;5034311;28;20323;-74
2022/06/23 12:09:55;;;;;;;;;;;;;;;;;;5033130;28;19913;-74
2022/06/23 12:12:21;;;;;;;;;;;;;;;;;;5034693;28;20289;-74
2022/06/23 12:14:47;;;;;;;;;;;;;;;;;;5034981;28;19955;-75
2022/06/23 12:17:13;;;;;;;;;;;;;;;;;;5034979;28;19909;-75
2022/06/23 12:19:39;;;;;;;;;;;;;;;;;;5034676;28;19996;-75
2022/06/23 12:22:05;;;;;;;;;;;;;;;;;;5034624;28;19948;-75
2022/06/23 12:24:31;;;;;;;;;;;;;;;;;;5034604;28;19916;-75
2022/06/23 12:26:57;;;;;;;;;;;;;;;;;;5034812;28;19913;-76
2022/06/23 12:29:23;;;;;;;;;;;;;;;;;;5034586;28;19910;-75
2022/06/23 12:31:48;;;;;;;;;;;;;;;;;;5034371;28;19913;-75
2022/06/23 12:34:17;;;;;;;;;;;;;;;;;;5034372;28;19916;-74
2022/06/23 12:36:42;;;;;;;;;;;;;;;;;;5034650;28;19917;-75
2022/06/23 12:39:08;;;;;;;;;;;;;;;;;;5034247;28;19939;-74
2022/06/23 12:41:34;;;;;;;;;;;;;;;;;;5034436;28;19963;-75
2022/06/23 12:44:00;;;;;;;;;;;;;;;;;;5034510;28;19959;-75
2022/06/23 12:46:26;;;;;;;;;;;;;;;;;;5034654;28;19995;-75
2022/06/23 12:48:52;;;;;;;;;;;;;;;;;;5034673;28;19915;-76
2022/06/23 12:51:18;;;;;;;;;;;;;;;;;;5034062;28;19917;-75
2022/06/23 12:53:44;;;;;;;;;;;;;;;;;;5034064;28;19909;-76
2022/06/23 12:56:10;;;;;;;;;;;;;;;;;;5034013;28;19955;-74
2022/06/23 12:58:36;;;;;;;;;;;;;;;;;;5033989;28;19913;-75
2022/06/23 13:01:01;;;;;;;;;;;;;;;;;;5034012;28;19909;-75
2022/06/23 13:03:27;;;;;;;;;;;;;;;;;;5033960;28;19924;-75
2022/06/23 13:05:53;;;;;;;;;;;;;;;;;;5034150;28;19909;-75
2022/06/23 13:08:20;;;;;;;;;;;;;;;;;;5033767;28;19909;-75
2022/06/23 13:10:46;;;;;;;;;;;;;;;;;;5033762;28;19910;-76
2022/06/23 13:13:12;;;;;;;;;;;;;;;;;;5032517;28;19913;-75
2022/06/23 13:15:39;;;;;;;;;;;;;;;;;;5033580;28;20285;-75
2022/06/23 13:18:04;;;;;;;;;;;;;;;;;;5034107;28;19939;-75
2022/06/23 13:20:30;;;;;;;;;;;;;;;;;;5033684;28;19916;-75
2022/06/23 13:22:56;;;;;;;;;;;;;;;;;;5033749;28;19913;-75
2022/06/23 13:25:22;;;;;;;;;;;;;;;;;;5033736;28;19917;-75
2022/06/23 13:27:48;;;;;;;;;;;;;;;;;;5033633;28;19916;-76
2022/06/23 13:30:14;;;;;;;;;;;;;;;;;;5033627;28;19916;-75
2022/06/23 13:32:40;;;;;;;;;;;;;;;;;;5033776;28;19917;-75
2022/06/23 13:35:06;;;;;;;;;;;;;;;;;;5033504;28;19910;-76
2022/06/23 13:37:32;;;;;;;;;;;;;;;;;;5032228;28;19909;-74
2022/06/23 13:39:58;;;;;;;;;;;;;;;;;;5033427;28;19909;-76
2022/06/23 13:42:24;;;;;;;;;;;;;;;;;;5033374;28;19917;-75
2022/06/23 13:44:50;;;;;;;;;;;;;;;;;;5037229;28;20268;-75
2022/06/23 13:47:16;;;;;;;;;;;;;;;;;;5036242;28;19920;-74
2022/06/23 13:49:42;;;;;;;;;;;;;;;;;;5037520;28;20293;-75
2022/06/23 13:52:08;;;;;;;;;;;;;;;;;;5037926;28;19917;-75
2022/06/23 13:54:33;;;;;;;;;;;;;;;;;;5037348;28;19916;-75
2022/06/23 13:56:59;;;;;;;;;;;;;;;;;;5037407;28;19975;-74
2022/06/23 13:59:25;;;;;;;;;;;;;;;;;;5037631;28;19920;-74
2022/06/23 14:01:51;;;;;;;;;;;;;;;;;;5037127;28;19956;-76
2022/06/23 14:04:17;;;;;;;;;;;;;;;;;;5037404;28;20273;-75
2022/06/23 14:06:43;;;;;;;;;;;;;;;;;;5037232;28;19909;-75
2022/06/23 14:09:09;;;;;;;;;;;;;;;;;;5037048;28;19915;-75
2022/06/23 14:11:35;;;;;;;;;;;;;;;;;;5037613;28;19913;-75
2022/06/23 14:14:01;;;;;;;;;;;;;;;;;;5037252;28;19916;-76
2022/06/23 14:16:27;;;;;;;;;;;;;;;;;;5036975;28;20277;-75
2022/06/23 14:18:52;;;;;;;;;;;;;;;;;;5036945;28;19941;-75
2022/06/23 14:21:18;;;;;;;;;;;;;;;;;;5036917;28;20373;-74
2022/06/23 14:23:46;;;;;;;;;;;;;;;;;;5037414;28;20354;-75
2022/06/23 14:26:13;;;;;;;;;;;;;;;;;;5035541;28;19913;-75
2022/06/23 14:28:39;;;;;;;;;;;;;;;;;;5037055;28;19909;-75
2022/06/23 14:31:05;;;;;;;;;;;;;;;;;;5036650;28;19921;-75
2022/06/23 14:33:31;;;;;;;;;;;;;;;;;;5036686;28;19916;-75
2022/06/23 14:35:57;;;;;;;;;;;;;;;;;;5037202;28;19909;-74
2022/06/23 14:38:23;;;;;;;;;;;;;;;;;;5036511;28;20328;-75
2022/06/23 14:40:49;;;;;;;;;;;;;;;;;;5036360;28;19941;-76
2022/06/23 14:43:15;;;;;;;;;;;;;;;;;;5037082;28;20414;-76
2022/06/23 14:45:41;;;;;;;;;;;;;;;;;;5036768;28;20012;-74
2022/06/23 14:48:07;;;;;;;;;;;;;;;;;;5036398;28;20400;-75
2022/06/23 14:50:33;;;;;;;;;;;;;;;;;;5036369;28;20365;-76
2022/06/23 14:52:59;;;;;;;;;;;;;;;;;;5036239;28;19917;-75
2022/06/23 14:55:25;;;;;;;;;;;;;;;;;;5035905;28;19996;-76
2022/06/23 14:57:51;;;;;;;;;;;;;;;;;;5036234;28;19917;-75
2022/06/23 15:00:17;;;;;;;;;;;;;;;;;;5036190;28;19916;-75
2022/06/23 15:02:43;;;;;;;;;;;;;;;;;;5036699;28;20015;-75
2022/06/23 15:05:09;;;;;;;;;;;;;;;;;;5036089;28;19916;-74
2022/06/23 15:07:35;;;;;;;;;;;;;;;;;;5036608;28;20369;-75
2022/06/23 15:10:01;;;;;;;;;;;;;;;;;;5036311;28;19913;-75
2022/06/23 15:12:27;;;;;;;;;;;;;;;;;;5036188;28;20365;-75
2022/06/23 15:14:53;;;;;;;;;;;;;;;;;;5035907;28;20393;-77
2022/06/23 15:17:19;;;;;;;;;;;;;;;;;;5035858;28;19909;-74
2022/06/23 15:19:45;;;;;;;;;;;;;;;;;;5035823;28;19997;-74
2022/06/23 15:24:56;;;;;;;;;;;;;;;;;;5035486;28;20413;-75
2022/06/23 15:27:22;;;;;;;;;;;;;;;;;;5035951;28;20003;-75
2022/06/23 15:29:48;;;;;;;;;;;;;;;;;;5035650;28;19924;-74
2022/06/23 15:32:13;;;;;;;;;;;;;;;;;;5035527;28;19913;-75
2022/06/23 15:34:39;;;;;;;;;;;;;;;;;;5036131;28;19909;-75
2022/06/23 15:37:06;;;;;;;;;;;;;;;;;;5035855;28;19913;-76
2022/06/23 15:39:32;;;;;;;;;;;;;;;;;;5035428;28;20277;-75
2022/06/23 15:41:58;;;;;;;;;;;;;;;;;;5035246;28;19939;-76
2022/06/23 15:44:24;;;;;;;;;;;;;;;;;;5035396;28;19909;-75
2022/06/23 15:46:52;;;;;;;;;;;;;;;;;;5035346;28;20276;-75
2022/06/23 15:49:18;;;;;;;;;;;;;;;;;;5035304;28;19909;-76
2022/06/23 15:51:44;;;;;;;;;;;;;;;;;;5035187;28;20407;-76
2022/06/23 15:54:10;;;;;;;;;;;;;;;;;;5035158;28;19959;-76
2022/06/23 15:56:36;;;;;;;;;;;;;;;;;;5035661;28;20265;-75
2022/06/23 15:59:01;;;;;;;;;;;;;;;;;;5035086;28;19944;-75
2022/06/23 16:01:27;;;;;;;;;;;;;;;;;;5035273;28;20257;-75
2022/06/23 16:03:53;;;;;;;;;;;;;;;;;;5034931;28;19955;-75
2022/06/23 16:06:19;;;;;;;;;;;;;;;;;;5034549;28;19909;-75
2022/06/23 16:08:45;;;;;;;;;;;;;;;;;;5034310;28;20396;-75
2022/06/23 16:11:11;;;;;;;;;;;;;;;;;;5035097;28;19913;-76
2022/06/23 16:13:37;;;;;;;;;;;;;;;;;;5034818;28;20369;-76
2022/06/23 16:16:03;;;;;;;;;;;;;;;;;;5035263;28;20369;-75
2022/06/23 16:18:29;;;;;;;;;;;;;;;;;;5034941;28;19909;-75
2022/06/23 16:20:55;;;;;;;;;;;;;;;;;;5034666;28;19909;-74
2022/06/23 16:23:22;;;;;;;;;;;;;;;;;;5034587;28;19916;-75
2022/06/23 16:25:48;;;;;;;;;;;;;;;;;;5035215;28;19916;-75
2022/06/23 16:28:22;;;;;;;;;;;;;;;;;;5153474;27;19911;-76
2022/06/23 16:30:47;;;;;;;;;;;;;;;;;;5152804;27;19953;-76
2022/06/23 16:33:13;;;;;;;;;;;;;;;;;;5152749;27;19908;-75
2022/06/23 16:35:39;;;;;;;;;;;;;;;;;;5153235;27;20001;-75
2022/06/23 16:38:05;;;;;;;;;;;;;;;;;;5148329;27;19908;-75
2022/06/23 16:40:31;;;;;;;;;;;;;;;;;;5131921;28;19914;-76
2022/06/23 16:42:57;;;;;;;;;;;;;;;;;;5132136;28;19908;-76
2022/06/23 16:45:23;;;;;;;;;;;;;;;;;;5132041;28;19911;-75
2022/06/23 16:47:50;;;;;;;;;;;;;;;;;;5132195;28;19912;-75
2022/06/23 16:50:16;;;;;;;;;;;;;;;;;;5131730;28;20375;-74